sensor_id;sensor_type;location;lat;lon;timestamp;pressure;altitude;pressure_sealevel;temperature;humidity
27613;BME280;15036;48.094;-1.690;2022-08-19T00:01:03;101190.91;;;24.37;51.79
27613;BME280;15036;48.094;-1.690;2022-08-19T00:03:28;101194.00;;;24.11;52.27
27613;BME280;15036;48.094;-1.690;2022-08-19T00:05:53;101194.84;;;24.26;51.91
27613;BME280;15036;48.094;-1.690;2022-08-19T00:08:18;101192.59;;;24.33;52.48
27613;BME280;15036;48.094;-1.690;2022-08-19T00:10:44;101193.16;;;24.40;52.46
27613;BME280;15036;48.094;-1.690;2022-08-19T00:13:10;101200.13;;;24.28;52.63
27613;BME280;15036;48.094;-1.690;2022-08-19T00:15:36;101190.63;;;24.44;52.34
27613;BME280;15036;48.094;-1.690;2022-08-19T00:18:01;101189.53;;;24.40;52.22
27613;BME280;15036;48.094;-1.690;2022-08-19T00:20:27;101186.72;;;24.30;52.27
27613;BME280;15036;48.094;-1.690;2022-08-19T00:22:52;101180.03;;;24.36;52.29
27613;BME280;15036;48.094;-1.690;2022-08-19T00:25:17;101190.06;;;24.72;51.51
27613;BME280;15036;48.094;-1.690;2022-08-19T00:27:43;101193.41;;;24.59;51.98
27613;BME280;15036;48.094;-1.690;2022-08-19T00:30:08;101194.00;;;24.36;51.83
27613;BME280;15036;48.094;-1.690;2022-08-19T00:32:35;101200.97;;;24.53;51.88
27613;BME280;15036;48.094;-1.690;2022-08-19T00:35:01;101191.19;;;24.51;52.11
27613;BME280;15036;48.094;-1.690;2022-08-19T00:37:26;101193.97;;;24.56;52.26
27613;BME280;15036;48.094;-1.690;2022-08-19T00:39:52;101181.97;;;24.65;51.83
27613;BME280;15036;48.094;-1.690;2022-08-19T00:42:18;101173.84;;;24.69;51.95
27613;BME280;15036;48.094;-1.690;2022-08-19T00:44:43;101173.03;;;24.63;52.29
27613;BME280;15036;48.094;-1.690;2022-08-19T00:47:09;101180.03;;;24.56;52.46
27613;BME280;15036;48.094;-1.690;2022-08-19T00:49:37;101180.31;;;24.49;52.76
27613;BME280;15036;48.094;-1.690;2022-08-19T00:52:09;101181.69;;;24.57;52.61
27613;BME280;15036;48.094;-1.690;2022-08-19T00:54:37;101188.41;;;24.46;53.23
27613;BME280;15036;48.094;-1.690;2022-08-19T00:57:05;101187.53;;;24.65;52.93
27613;BME280;15036;48.094;-1.690;2022-08-19T00:59:31;101178.34;;;24.75;52.66
27613;BME280;15036;48.094;-1.690;2022-08-19T01:01:57;101186.16;;;24.73;52.87
27613;BME280;15036;48.094;-1.690;2022-08-19T01:04:23;101176.63;;;24.69;53.30
27613;BME280;15036;48.094;-1.690;2022-08-19T01:06:48;101181.13;;;24.65;53.42
27613;BME280;15036;48.094;-1.690;2022-08-19T01:09:13;101166.59;;;24.63;53.47
27613;BME280;15036;48.094;-1.690;2022-08-19T01:11:39;101170.22;;;24.68;53.48
27613;BME280;15036;48.094;-1.690;2022-08-19T01:14:05;101180.59;;;24.78;53.24
27613;BME280;15036;48.094;-1.690;2022-08-19T01:16:32;101173.28;;;24.82;53.42
27613;BME280;15036;48.094;-1.690;2022-08-19T01:18:58;101176.03;;;25.02;53.03
27613;BME280;15036;48.094;-1.690;2022-08-19T01:23:51;101172.66;;;25.00;53.50
27613;BME280;15036;48.094;-1.690;2022-08-19T01:26:18;101166.56;;;24.88;54.10
27613;BME280;15036;48.094;-1.690;2022-08-19T01:28:44;101173.78;;;25.09;53.69
27613;BME280;15036;48.094;-1.690;2022-08-19T01:31:13;101161.59;;;24.35;55.99
27613;BME280;15036;48.094;-1.690;2022-08-19T01:33:38;101172.22;;;24.28;56.99
27613;BME280;15036;48.094;-1.690;2022-08-19T01:36:09;101163.81;;;24.58;56.25
27613;BME280;15036;48.094;-1.690;2022-08-19T01:38:36;101168.00;;;24.55;56.59
27613;BME280;15036;48.094;-1.690;2022-08-19T01:41:02;101171.66;;;24.31;57.74
27613;BME280;15036;48.094;-1.690;2022-08-19T01:43:27;101172.50;;;24.21;58.03
27613;BME280;15036;48.094;-1.690;2022-08-19T01:45:52;101174.72;;;24.39;57.80
27613;BME280;15036;48.094;-1.690;2022-08-19T01:48:18;101173.28;;;24.01;59.01
27613;BME280;15036;48.094;-1.690;2022-08-19T01:50:44;101172.22;;;24.38;58.49
27613;BME280;15036;48.094;-1.690;2022-08-19T01:53:10;101168.03;;;24.10;59.26
27613;BME280;15036;48.094;-1.690;2022-08-19T01:55:37;101165.78;;;24.07;59.62
27613;BME280;15036;48.094;-1.690;2022-08-19T01:58:02;101169.41;;;24.23;59.46
27613;BME280;15036;48.094;-1.690;2022-08-19T02:00:29;101164.94;;;24.47;58.41
27613;BME280;15036;48.094;-1.690;2022-08-19T02:02:56;101175.56;;;24.40;59.09
27613;BME280;15036;48.094;-1.690;2022-08-19T02:05:21;101173.53;;;23.85;60.40
27613;BME280;15036;48.094;-1.690;2022-08-19T02:07:47;101179.41;;;23.83;60.40
27613;BME280;15036;48.094;-1.690;2022-08-19T02:10:14;101170.28;;;24.28;59.53
27613;BME280;15036;48.094;-1.690;2022-08-19T02:12:40;101157.41;;;24.07;59.53
27613;BME280;15036;48.094;-1.690;2022-08-19T02:15:05;101175.56;;;24.09;59.81
27613;BME280;15036;48.094;-1.690;2022-08-19T02:17:31;101175.56;;;24.04;60.17
27613;BME280;15036;48.094;-1.690;2022-08-19T02:19:56;101162.16;;;24.12;59.99
27613;BME280;15036;48.094;-1.690;2022-08-19T02:22:22;101175.28;;;24.16;60.12
27613;BME280;15036;48.094;-1.690;2022-08-19T02:24:47;101176.09;;;24.17;60.21
27613;BME280;15036;48.094;-1.690;2022-08-19T02:27:13;101171.09;;;24.29;59.83
27613;BME280;15036;48.094;-1.690;2022-08-19T02:29:38;101168.28;;;24.39;59.54
27613;BME280;15036;48.094;-1.690;2022-08-19T02:32:03;101168.59;;;24.37;59.72
27613;BME280;15036;48.094;-1.690;2022-08-19T02:34:29;101176.41;;;24.40;59.62
27613;BME280;15036;48.094;-1.690;2022-08-19T02:36:54;101174.19;;;24.32;59.72
27613;BME280;15036;48.094;-1.690;2022-08-19T02:39:19;101184.47;;;24.37;59.62
27613;BME280;15036;48.094;-1.690;2022-08-19T02:41:45;101172.22;;;24.38;59.76
27613;BME280;15036;48.094;-1.690;2022-08-19T02:44:10;101177.53;;;24.04;60.47
27613;BME280;15036;48.094;-1.690;2022-08-19T02:46:35;101173.63;;;24.10;60.63
27613;BME280;15036;48.094;-1.690;2022-08-19T02:49:05;101175.56;;;24.15;60.25
27613;BME280;15036;48.094;-1.690;2022-08-19T02:51:33;101180.81;;;23.96;61.28
27613;BME280;15036;48.094;-1.690;2022-08-19T02:53:59;101177.75;;;23.92;61.44
27613;BME280;15036;48.094;-1.690;2022-08-19T02:56:25;101186.66;;;23.89;61.45
27613;BME280;15036;48.094;-1.690;2022-08-19T02:58:52;101188.69;;;24.34;60.24
27613;BME280;15036;48.094;-1.690;2022-08-19T03:01:28;101178.66;;;24.38;60.15
27613;BME280;15036;48.094;-1.690;2022-08-19T03:03:54;101190.63;;;24.29;60.29
27613;BME280;15036;48.094;-1.690;2022-08-19T03:06:20;101191.75;;;24.53;59.65
27613;BME280;15036;48.094;-1.690;2022-08-19T03:08:46;101187.84;;;24.14;61.06
27613;BME280;15036;48.094;-1.690;2022-08-19T03:13:40;101178.31;;;24.65;59.20
27613;BME280;15036;48.094;-1.690;2022-08-19T03:16:05;101175.56;;;24.40;59.90
27613;BME280;15036;48.094;-1.690;2022-08-19T03:18:30;101174.97;;;24.53;59.59
27613;BME280;15036;48.094;-1.690;2022-08-19T03:20:56;101180.25;;;24.64;59.15
27613;BME280;15036;48.094;-1.690;2022-08-19T03:23:22;101172.19;;;24.78;58.91
27613;BME280;15036;48.094;-1.690;2022-08-19T03:25:48;101166.63;;;24.78;59.02
27613;BME280;15036;48.094;-1.690;2022-08-19T03:28:15;101170.47;;;24.92;58.56
27613;BME280;15036;48.094;-1.690;2022-08-19T03:30:41;101168.81;;;24.81;58.47
27613;BME280;15036;48.094;-1.690;2022-08-19T03:33:07;101179.72;;;24.67;59.06
27613;BME280;15036;48.094;-1.690;2022-08-19T03:35:32;101162.72;;;24.74;59.01
27613;BME280;15036;48.094;-1.690;2022-08-19T03:37:59;101170.81;;;24.75;59.08
27613;BME280;15036;48.094;-1.690;2022-08-19T03:40:24;101174.16;;;24.77;59.17
27613;BME280;15036;48.094;-1.690;2022-08-19T03:42:50;101174.44;;;24.51;59.87
27613;BME280;15036;48.094;-1.690;2022-08-19T03:45:15;101176.09;;;24.57;59.57
27613;BME280;15036;48.094;-1.690;2022-08-19T03:47:40;101180.00;;;24.51;59.89
27613;BME280;15036;48.094;-1.690;2022-08-19T03:50:06;101176.34;;;24.70;59.46
27613;BME280;15036;48.094;-1.690;2022-08-19T03:52:31;101178.31;;;24.70;59.39
27613;BME280;15036;48.094;-1.690;2022-08-19T03:54:56;101173.00;;;24.93;59.12
27613;BME280;15036;48.094;-1.690;2022-08-19T03:57:22;101178.06;;;24.51;59.86
27613;BME280;15036;48.094;-1.690;2022-08-19T03:59:47;101187.28;;;24.62;59.53
27613;BME280;15036;48.094;-1.690;2022-08-19T04:02:12;101177.22;;;24.56;59.67
27613;BME280;15036;48.094;-1.690;2022-08-19T04:04:38;101176.69;;;24.74;59.46
27613;BME280;15036;48.094;-1.690;2022-08-19T04:07:04;101185.03;;;24.79;59.44
27613;BME280;15036;48.094;-1.690;2022-08-19T04:09:29;101173.25;;;24.92;59.08
27613;BME280;15036;48.094;-1.690;2022-08-19T04:11:55;101178.00;;;25.02;58.80
27613;BME280;15036;48.094;-1.690;2022-08-19T04:14:22;101170.19;;;24.93;59.18
27613;BME280;15036;48.094;-1.690;2022-08-19T04:16:49;101165.72;;;24.92;59.09
27613;BME280;15036;48.094;-1.690;2022-08-19T04:19:15;101166.03;;;24.61;59.89
27613;BME280;15036;48.094;-1.690;2022-08-19T04:21:42;101171.63;;;24.51;60.64
27613;BME280;15036;48.094;-1.690;2022-08-19T04:24:08;101164.34;;;24.80;59.76
27613;BME280;15036;48.094;-1.690;2022-08-19T04:26:34;101162.72;;;24.74;59.84
27613;BME280;15036;48.094;-1.690;2022-08-19T04:29:01;101170.22;;;24.78;59.77
27613;BME280;15036;48.094;-1.690;2022-08-19T04:31:28;101172.72;;;24.80;60.04
27613;BME280;15036;48.094;-1.690;2022-08-19T04:33:54;101166.31;;;24.74;60.16
27613;BME280;15036;48.094;-1.690;2022-08-19T04:36:22;101175.56;;;24.40;61.39
27613;BME280;15036;48.094;-1.690;2022-08-19T04:38:48;101173.31;;;24.17;62.05
27613;BME280;15036;48.094;-1.690;2022-08-19T04:41:14;101171.66;;;24.56;61.18
27613;BME280;15036;48.094;-1.690;2022-08-19T04:43:58;101173.28;;;24.67;61.20
27613;BME280;15036;48.094;-1.690;2022-08-19T04:46:23;101172.75;;;24.45;61.51
27613;BME280;15036;48.094;-1.690;2022-08-19T04:48:48;101177.22;;;24.61;61.18
27613;BME280;15036;48.094;-1.690;2022-08-19T04:51:14;101169.41;;;24.58;61.12
27613;BME280;15036;48.094;-1.690;2022-08-19T04:53:40;101177.50;;;24.39;61.73
27613;BME280;15036;48.094;-1.690;2022-08-19T04:56:08;101171.91;;;24.69;61.05
27613;BME280;15036;48.094;-1.690;2022-08-19T04:58:34;101173.56;;;24.70;60.82
27613;BME280;15036;48.094;-1.690;2022-08-19T05:00:59;101177.19;;;24.71;61.20
27613;BME280;15036;48.094;-1.690;2022-08-19T05:03:25;101180.03;;;24.36;61.93
27613;BME280;15036;48.094;-1.690;2022-08-19T05:05:50;101180.03;;;24.46;61.80
27613;BME280;15036;48.094;-1.690;2022-08-19T05:08:17;101174.41;;;24.71;61.09
27613;BME280;15036;48.094;-1.690;2022-08-19T05:10:49;101175.81;;;24.63;61.25
27613;BME280;15036;48.094;-1.690;2022-08-19T05:13:15;101183.38;;;24.73;61.20
27613;BME280;15036;48.094;-1.690;2022-08-19T05:15:41;101180.78;;;24.97;60.22
27613;BME280;15036;48.094;-1.690;2022-08-19T05:18:07;101183.03;;;24.94;60.23
27613;BME280;15036;48.094;-1.690;2022-08-19T05:20:50;101192.31;;;24.60;61.49
27613;BME280;15036;48.094;-1.690;2022-08-19T05:23:34;101191.19;;;24.46;61.97
27613;BME280;15036;48.094;-1.690;2022-08-19T05:25:59;101188.97;;;24.78;60.77
27613;BME280;15036;48.094;-1.690;2022-08-19T05:28:25;101185.56;;;24.71;61.22
27613;BME280;15036;48.094;-1.690;2022-08-19T05:30:50;101191.16;;;24.71;61.09
27613;BME280;15036;48.094;-1.690;2022-08-19T05:33:16;101178.88;;;24.82;60.72
27613;BME280;15036;48.094;-1.690;2022-08-19T05:35:41;101193.38;;;24.84;60.46
27613;BME280;15036;48.094;-1.690;2022-08-19T05:38:07;101192.53;;;24.99;60.11
27613;BME280;15036;48.094;-1.690;2022-08-19T05:40:36;101192.56;;;24.93;60.23
27613;BME280;15036;48.094;-1.690;2022-08-19T05:43:03;101193.69;;;24.77;60.58
27613;BME280;15036;48.094;-1.690;2022-08-19T05:45:28;101196.47;;;24.52;61.61
27613;BME280;15036;48.094;-1.690;2022-08-19T05:47:54;101200.69;;;24.60;60.79
27613;BME280;15036;48.094;-1.690;2022-08-19T05:50:19;101202.91;;;24.68;60.98
27613;BME280;15036;48.094;-1.690;2022-08-19T05:52:44;101205.09;;;25.01;60.24
27613;BME280;15036;48.094;-1.690;2022-08-19T05:55:10;101198.63;;;25.11;59.70
27613;BME280;15036;48.094;-1.690;2022-08-19T05:57:36;101205.41;;;24.74;60.69
27613;BME280;15036;48.094;-1.690;2022-08-19T06:00:01;101209.88;;;24.90;60.28
27613;BME280;15036;48.094;-1.690;2022-08-19T06:02:28;101213.25;;;24.57;61.21
27613;BME280;15036;48.094;-1.690;2022-08-19T06:04:53;101209.03;;;24.80;60.76
27613;BME280;15036;48.094;-1.690;2022-08-19T06:07:18;101205.66;;;24.88;60.50
27613;BME280;15036;48.094;-1.690;2022-08-19T06:09:44;101211.00;;;24.89;60.39
27613;BME280;15036;48.094;-1.690;2022-08-19T06:12:09;101214.34;;;24.41;62.00
27613;BME280;15036;48.094;-1.690;2022-08-19T06:14:35;101213.81;;;24.79;60.67
27613;BME280;15036;48.094;-1.690;2022-08-19T06:17:01;101213.00;;;24.74;60.71
27613;BME280;15036;48.094;-1.690;2022-08-19T06:19:27;101212.91;;;24.94;60.33
27613;BME280;15036;48.094;-1.690;2022-08-19T06:21:55;101214.09;;;24.58;61.56
27613;BME280;15036;48.094;-1.690;2022-08-19T06:24:22;101207.91;;;24.86;61.16
27613;BME280;15036;48.094;-1.690;2022-08-19T06:26:51;101215.78;;;24.74;61.77
27613;BME280;15036;48.094;-1.690;2022-08-19T06:29:18;101217.72;;;24.73;61.72
27613;BME280;15036;48.094;-1.690;2022-08-19T06:31:44;101211.84;;;24.75;61.92
27613;BME280;15036;48.094;-1.690;2022-08-19T06:34:10;101208.72;;;25.02;61.29
27613;BME280;15036;48.094;-1.690;2022-08-19T06:36:36;101215.78;;;24.74;62.02
27613;BME280;15036;48.094;-1.690;2022-08-19T06:39:04;101218.56;;;24.74;62.29
27613;BME280;15036;48.094;-1.690;2022-08-19T06:41:30;101220.50;;;24.53;62.71
27613;BME280;15036;48.094;-1.690;2022-08-19T06:43:56;101207.34;;;24.89;61.99
27613;BME280;15036;48.094;-1.690;2022-08-19T06:46:21;101212.94;;;24.69;62.36
27613;BME280;15036;48.094;-1.690;2022-08-19T06:48:47;101215.75;;;24.79;62.35
27613;BME280;15036;48.094;-1.690;2022-08-19T06:51:16;101219.09;;;24.71;62.58
27613;BME280;15036;48.094;-1.690;2022-08-19T06:53:44;101224.97;;;24.44;63.17
27613;BME280;15036;48.094;-1.690;2022-08-19T06:56:11;101226.38;;;24.77;62.77
27613;BME280;15036;48.094;-1.690;2022-08-19T06:58:37;101223.00;;;24.70;62.29
27613;BME280;15036;48.094;-1.690;2022-08-19T07:01:03;101221.88;;;24.61;62.46
27613;BME280;15036;48.094;-1.690;2022-08-19T07:03:29;101226.06;;;24.58;62.45
27613;BME280;15036;48.094;-1.690;2022-08-19T07:05:56;101221.88;;;24.41;63.09
27613;BME280;15036;48.094;-1.690;2022-08-19T07:08:21;101219.66;;;24.53;62.81
27613;BME280;15036;48.094;-1.690;2022-08-19T07:10:46;101219.66;;;24.28;63.14
27613;BME280;15036;48.094;-1.690;2022-08-19T07:13:12;101226.38;;;24.62;62.52
27613;BME280;15036;48.094;-1.690;2022-08-19T07:15:38;101219.34;;;25.00;61.66
27613;BME280;15036;48.094;-1.690;2022-08-19T07:18:03;101222.44;;;24.88;61.41
27613;BME280;15036;48.094;-1.690;2022-08-19T07:20:29;101224.13;;;24.69;62.08
27613;BME280;15036;48.094;-1.690;2022-08-19T07:22:54;101221.03;;;25.06;61.23
27613;BME280;15036;48.094;-1.690;2022-08-19T07:25:20;101229.44;;;24.75;61.71
27613;BME280;15036;48.094;-1.690;2022-08-19T07:27:48;101236.91;;;25.10;61.09
27613;BME280;15036;48.094;-1.690;2022-08-19T07:30:14;101234.69;;;25.07;61.00
27613;BME280;15036;48.094;-1.690;2022-08-19T07:32:39;101239.78;;;24.60;62.05
27613;BME280;15036;48.094;-1.690;2022-08-19T07:35:05;101251.22;;;24.38;63.11
27613;BME280;15036;48.094;-1.690;2022-08-19T07:37:31;101247.56;;;24.63;62.39
27613;BME280;15036;48.094;-1.690;2022-08-19T07:39:56;101240.88;;;24.84;61.36
27613;BME280;15036;48.094;-1.690;2022-08-19T07:42:21;101249.81;;;24.81;61.66
27613;BME280;15036;48.094;-1.690;2022-08-19T07:44:47;101251.47;;;24.97;61.26
27613;BME280;15036;48.094;-1.690;2022-08-19T07:47:12;101245.06;;;24.91;61.43
27613;BME280;15036;48.094;-1.690;2022-08-19T07:49:40;101246.47;;;24.49;62.82
27613;BME280;15036;48.094;-1.690;2022-08-19T07:52:06;101240.31;;;24.37;62.39
27613;BME280;15036;48.094;-1.690;2022-08-19T07:54:33;101250.09;;;24.89;61.52
27613;BME280;15036;48.094;-1.690;2022-08-19T07:56:59;101229.41;;;25.01;61.39
27613;BME280;15036;48.094;-1.690;2022-08-19T07:59:25;101243.00;;;25.32;60.40
27613;BME280;15036;48.094;-1.690;2022-08-19T08:01:51;101238.00;;;25.24;60.24
27613;BME280;15036;48.094;-1.690;2022-08-19T08:04:17;101238.34;;;25.08;60.73
27613;BME280;15036;48.094;-1.690;2022-08-19T08:07:02;101244.25;;;25.75;59.23
27613;BME280;15036;48.094;-1.690;2022-08-19T08:09:46;101238.75;;;25.55;59.15
27613;BME280;15036;48.094;-1.690;2022-08-19T08:14:44;101247.97;;;25.60;58.66
27613;BME280;15036;48.094;-1.690;2022-08-19T08:17:11;101247.31;;;25.78;58.30
27613;BME280;15036;48.094;-1.690;2022-08-19T08:19:37;101241.84;;;26.07;57.88
27613;BME280;15036;48.094;-1.690;2022-08-19T08:22:04;101251.66;;;26.00;57.99
27613;BME280;15036;48.094;-1.690;2022-08-19T08:24:31;101247.16;;;26.04;57.18
27613;BME280;15036;48.094;-1.690;2022-08-19T08:26:57;101249.09;;;26.03;57.33
27613;BME280;15036;48.094;-1.690;2022-08-19T08:29:24;101245.19;;;26.04;57.53
27613;BME280;15036;48.094;-1.690;2022-08-19T08:31:49;101245.25;;;25.35;58.92
27613;BME280;15036;48.094;-1.690;2022-08-19T08:34:14;101249.94;;;25.55;58.88
27613;BME280;15036;48.094;-1.690;2022-08-19T08:36:41;101254.56;;;25.85;57.80
27613;BME280;15036;48.094;-1.690;2022-08-19T08:39:09;101249.66;;;26.05;57.15
27613;BME280;15036;48.094;-1.690;2022-08-19T08:41:55;101245.63;;;25.83;57.46
27613;BME280;15036;48.094;-1.690;2022-08-19T08:44:25;101254.50;;;25.95;57.81
27613;BME280;15036;48.094;-1.690;2022-08-19T08:46:57;101250.19;;;26.51;56.01
27613;BME280;15036;48.094;-1.690;2022-08-19T08:51:52;101259.38;;;26.23;56.83
27613;BME280;15036;48.094;-1.690;2022-08-19T08:54:20;101263.50;;;25.87;57.50
27613;BME280;15036;48.094;-1.690;2022-08-19T08:56:50;101256.97;;;26.06;56.88
27613;BME280;15036;48.094;-1.690;2022-08-19T08:59:26;101255.09;;;26.35;56.51
27613;BME280;15036;48.094;-1.690;2022-08-19T09:01:54;101238.88;;;26.95;55.32
27613;BME280;15036;48.094;-1.690;2022-08-19T09:04:19;101249.34;;;27.13;54.67
27613;BME280;15036;48.094;-1.690;2022-08-19T09:09:35;101239.41;;;27.02;53.90
27613;BME280;15036;48.094;-1.690;2022-08-19T09:12:06;101245.97;;;26.87;54.42
27613;BME280;15036;48.094;-1.690;2022-08-19T09:17:00;101246.72;;;26.98;53.83
27613;BME280;15036;48.094;-1.690;2022-08-19T09:19:28;101254.22;;;26.69;54.91
27613;BME280;15036;48.094;-1.690;2022-08-19T09:21:54;101259.94;;;26.58;55.49
27613;BME280;15036;48.094;-1.690;2022-08-19T09:24:19;101266.81;;;26.76;55.38
27613;BME280;15036;48.094;-1.690;2022-08-19T09:26:44;101257.41;;;27.19;54.16
27613;BME280;15036;48.094;-1.690;2022-08-19T09:29:10;101263.88;;;27.67;53.10
27613;BME280;15036;48.094;-1.690;2022-08-19T09:31:36;101254.81;;;27.52;53.23
27613;BME280;15036;48.094;-1.690;2022-08-19T09:34:02;101263.06;;;27.14;53.75
27613;BME280;15036;48.094;-1.690;2022-08-19T09:36:29;101264.91;;;27.53;52.68
27613;BME280;15036;48.094;-1.690;2022-08-19T09:38:57;101254.81;;;27.52;52.51
27613;BME280;15036;48.094;-1.690;2022-08-19T09:41:24;101265.63;;;27.63;52.53
27613;BME280;15036;48.094;-1.690;2022-08-19T09:43:50;101268.22;;;27.78;52.21
27613;BME280;15036;48.094;-1.690;2022-08-19T09:46:17;101264.25;;;27.79;52.31
27613;BME280;15036;48.094;-1.690;2022-08-19T09:48:44;101265.88;;;27.85;51.85
27613;BME280;15036;48.094;-1.690;2022-08-19T09:51:13;101259.59;;;27.93;51.37
27613;BME280;15036;48.094;-1.690;2022-08-19T09:53:42;101262.03;;;27.34;52.67
27613;BME280;15036;48.094;-1.690;2022-08-19T09:56:07;101258.28;;;27.86;51.72
27613;BME280;15036;48.094;-1.690;2022-08-19T09:58:33;101251.28;;;27.17;53.55
27613;BME280;15036;48.094;-1.690;2022-08-19T10:01:00;101253.78;;;27.19;53.07
27613;BME280;15036;48.094;-1.690;2022-08-19T10:03:26;101269.38;;;26.68;54.72
27613;BME280;15036;48.094;-1.690;2022-08-19T10:05:52;101259.28;;;27.00;54.69
27613;BME280;15036;48.094;-1.690;2022-08-19T10:08:21;101273.03;;;26.68;54.86
27613;BME280;15036;48.094;-1.690;2022-08-19T10:10:47;101255.38;;;27.01;54.56
27613;BME280;15036;48.094;-1.690;2022-08-19T10:13:16;101263.16;;;27.04;54.22
27613;BME280;15036;48.094;-1.690;2022-08-19T10:15:41;101240.38;;;27.39;53.16
27613;BME280;15036;48.094;-1.690;2022-08-19T10:18:07;101265.38;;;27.36;52.89
27613;BME280;15036;48.094;-1.690;2022-08-19T10:20:32;101257.97;;;27.21;53.89
27613;BME280;15036;48.094;-1.690;2022-08-19T10:22:57;101271.94;;;26.98;54.35
27613;BME280;15036;48.094;-1.690;2022-08-19T10:25:24;101268.97;;;26.84;54.70
27613;BME280;15036;48.094;-1.690;2022-08-19T10:27:51;101268.13;;;27.12;55.10
27613;BME280;15036;48.094;-1.690;2022-08-19T10:30:16;101271.03;;;27.02;55.13
27613;BME280;15036;48.094;-1.690;2022-08-19T10:32:41;101260.81;;;27.16;54.85
27613;BME280;15036;48.094;-1.690;2022-08-19T10:35:06;101269.81;;;26.85;54.87
27613;BME280;15036;48.094;-1.690;2022-08-19T10:37:33;101265.56;;;27.16;54.58
27613;BME280;15036;48.094;-1.690;2022-08-19T10:39:59;101267.53;;;26.92;55.25
27613;BME280;15036;48.094;-1.690;2022-08-19T10:42:24;101262.22;;;27.14;54.66
27613;BME280;15036;48.094;-1.690;2022-08-19T10:44:49;101263.78;;;27.01;55.53
27613;BME280;15036;48.094;-1.690;2022-08-19T10:47:15;101262.47;;;26.60;56.07
27613;BME280;15036;48.094;-1.690;2022-08-19T10:49:40;101261.22;;;27.05;54.65
27613;BME280;15036;48.094;-1.690;2022-08-19T10:52:25;101259.81;;;27.31;54.16
27613;BME280;15036;48.094;-1.690;2022-08-19T10:55:01;101258.69;;;27.56;53.12
27613;BME280;15036;48.094;-1.690;2022-08-19T10:57:45;101257.16;;;27.87;52.56
27613;BME280;15036;48.094;-1.690;2022-08-19T11:00:11;101267.44;;;28.15;52.54
27613;BME280;15036;48.094;-1.690;2022-08-19T11:02:36;101256.81;;;27.51;55.22
27613;BME280;15036;48.094;-1.690;2022-08-19T11:05:01;101258.81;;;27.45;55.97
27613;BME280;15036;48.094;-1.690;2022-08-19T11:07:27;101257.88;;;27.26;57.38
27613;BME280;15036;48.094;-1.690;2022-08-19T11:09:53;101259.47;;;27.61;56.47
27613;BME280;15036;48.094;-1.690;2022-08-19T11:12:18;101262.25;;;27.85;55.50
27613;BME280;15036;48.094;-1.690;2022-08-19T11:14:44;101255.03;;;27.79;54.69
27613;BME280;15036;48.094;-1.690;2022-08-19T11:17:09;101251.41;;;27.55;54.28
27613;BME280;15036;48.094;-1.690;2022-08-19T11:19:38;101246.81;;;27.40;55.39
27613;BME280;15036;48.094;-1.690;2022-08-19T11:22:03;101239.41;;;27.25;54.85
27613;BME280;15036;48.094;-1.690;2022-08-19T11:24:29;101240.31;;;26.92;55.94
27613;BME280;15036;48.094;-1.690;2022-08-19T11:26:58;101245.00;;;26.73;58.28
27613;BME280;15036;48.094;-1.690;2022-08-19T11:29:26;101244.34;;;26.81;56.68
27613;BME280;15036;48.094;-1.690;2022-08-19T11:31:52;101252.09;;;27.18;56.65
27613;BME280;15036;48.094;-1.690;2022-08-19T11:34:19;101246.97;;;27.01;57.06
27613;BME280;15036;48.094;-1.690;2022-08-19T11:36:45;101247.41;;;26.85;57.10
27613;BME280;15036;48.094;-1.690;2022-08-19T11:39:11;101247.28;;;27.23;55.13
27613;BME280;15036;48.094;-1.690;2022-08-19T11:41:37;101245.97;;;27.39;54.99
27613;BME280;15036;48.094;-1.690;2022-08-19T11:44:02;101250.19;;;27.13;55.17
27613;BME280;15036;48.094;-1.690;2022-08-19T11:46:29;101248.72;;;27.68;53.89
27613;BME280;15036;48.094;-1.690;2022-08-19T11:48:55;101257.00;;;27.31;53.62
27613;BME280;15036;48.094;-1.690;2022-08-19T11:51:22;101246.81;;;26.88;54.62
27613;BME280;15036;48.094;-1.690;2022-08-19T11:53:47;101251.81;;;26.91;53.60
27613;BME280;15036;48.094;-1.690;2022-08-19T11:56:13;101254.78;;;27.33;52.85
27613;BME280;15036;48.094;-1.690;2022-08-19T11:58:38;101248.63;;;27.26;53.66
27613;BME280;15036;48.094;-1.690;2022-08-19T12:01:05;101267.78;;;27.19;56.16
27613;BME280;15036;48.094;-1.690;2022-08-19T12:03:30;101261.66;;;26.16;59.57
27613;BME280;15036;48.094;-1.690;2022-08-19T12:05:56;101267.25;;;25.67;62.10
27613;BME280;15036;48.094;-1.690;2022-08-19T12:08:21;101269.25;;;25.46;63.04
27613;BME280;15036;48.094;-1.690;2022-08-19T12:10:47;101275.47;;;25.18;64.42
27613;BME280;15036;48.094;-1.690;2022-08-19T12:13:12;101277.19;;;25.83;63.33
27613;BME280;15036;48.094;-1.690;2022-08-19T12:15:43;101278.03;;;25.89;63.24
27613;BME280;15036;48.094;-1.690;2022-08-19T12:18:10;101278.34;;;25.77;64.08
27613;BME280;15036;48.094;-1.690;2022-08-19T12:20:36;101270.59;;;26.18;63.30
27613;BME280;15036;48.094;-1.690;2022-08-19T12:23:03;101270.81;;;25.77;63.86
27613;BME280;15036;48.094;-1.690;2022-08-19T12:25:29;101272.28;;;25.65;64.39
27613;BME280;15036;48.094;-1.690;2022-08-19T12:27:54;101267.59;;;25.99;63.63
27613;BME280;15036;48.094;-1.690;2022-08-19T12:30:20;101270.22;;;26.34;62.55
27613;BME280;15036;48.094;-1.690;2022-08-19T12:32:45;101274.97;;;26.34;62.89
27613;BME280;15036;48.094;-1.690;2022-08-19T12:35:10;101267.81;;;26.18;62.75
27613;BME280;15036;48.094;-1.690;2022-08-19T12:37:36;101265.19;;;26.31;62.28
27613;BME280;15036;48.094;-1.690;2022-08-19T12:40:02;101265.28;;;26.55;61.68
27613;BME280;15036;48.094;-1.690;2022-08-19T12:42:28;101266.72;;;26.86;60.87
27613;BME280;15036;48.094;-1.690;2022-08-19T12:44:54;101264.78;;;26.48;61.05
27613;BME280;15036;48.094;-1.690;2022-08-19T12:47:19;101262.66;;;26.74;60.65
27613;BME280;15036;48.094;-1.690;2022-08-19T12:49:45;101271.69;;;26.60;61.28
27613;BME280;15036;48.094;-1.690;2022-08-19T12:52:11;101271.22;;;26.82;60.20